Roby, Texas
Current Conditions -  °F | °C
As of 10:15 AM on Wednesday 26 Nov 2014 (Local Time) from KSWW Reporting Station
Clear Clear  
Wind Chill: 51°   Ceiling: Unl
Heat Index: 51°   Visibility: 10mi
Dew Point: 30°   Wind: 13mph
Humidity: 44%   Direction: 10°N
Pressure: 30.28"   Gusts: 18mph
Location:  32.74°N, 100.38°W
Report Text: KSWW 261615Z AUTO 01011G16KT 10SM CLR 11/M01 A3028 RMK AO2 T01061011
Loading
Personal Weather Stations






























Interactive Weather Map New forecast layout! Learn more

10-Day Weather Forecast

Advertisements
Track Severe Weather on mobile